sensor_id;sensor_type;location;lat;lon;timestamp;P1;durP1;ratioP1;P2;durP2;ratioP2
3343;SDS011;1685;53.104;8.228;2022-12-18T00:02:00;83.80;;;28.27;;
3343;SDS011;1685;53.104;8.228;2022-12-18T00:04:28;93.13;;;29.40;;
3343;SDS011;1685;53.104;8.228;2022-12-18T00:06:56;89.27;;;30.30;;
3343;SDS011;1685;53.104;8.228;2022-12-18T00:09:23;90.83;;;27.53;;
3343;SDS011;1685;53.104;8.228;2022-12-18T00:11:50;104.20;;;30.77;;
3343;SDS011;1685;53.104;8.228;2022-12-18T00:14:17;95.17;;;30.10;;
3343;SDS011;1685;53.104;8.228;2022-12-18T00:16:44;95.60;;;28.10;;
3343;SDS011;1685;53.104;8.228;2022-12-18T00:19:12;91.07;;;29.60;;
3343;SDS011;1685;53.104;8.228;2022-12-18T00:21:39;83.33;;;28.57;;
3343;SDS011;1685;53.104;8.228;2022-12-18T00:24:07;81.27;;;26.10;;
3343;SDS011;1685;53.104;8.228;2022-12-18T00:26:35;80.67;;;29.60;;
3343;SDS011;1685;53.104;8.228;2022-12-18T00:29:05;76.57;;;26.43;;
3343;SDS011;1685;53.104;8.228;2022-12-18T00:31:33;76.00;;;26.30;;
3343;SDS011;1685;53.104;8.228;2022-12-18T00:34:01;84.37;;;28.00;;
3343;SDS011;1685;53.104;8.228;2022-12-18T00:36:28;84.57;;;27.37;;
3343;SDS011;1685;53.104;8.228;2022-12-18T00:38:58;65.30;;;25.60;;
3343;SDS011;1685;53.104;8.228;2022-12-18T00:41:27;57.07;;;24.37;;
3343;SDS011;1685;53.104;8.228;2022-12-18T00:44:13;66.53;;;24.17;;
3343;SDS011;1685;53.104;8.228;2022-12-18T00:46:41;74.93;;;26.90;;
3343;SDS011;1685;53.104;8.228;2022-12-18T00:49:09;55.13;;;23.20;;
3343;SDS011;1685;53.104;8.228;2022-12-18T00:51:35;60.07;;;25.13;;
3343;SDS011;1685;53.104;8.228;2022-12-18T00:54:02;67.90;;;23.37;;
3343;SDS011;1685;53.104;8.228;2022-12-18T00:56:31;57.80;;;23.40;;
3343;SDS011;1685;53.104;8.228;2022-12-18T00:58:57;58.20;;;21.17;;
3343;SDS011;1685;53.104;8.228;2022-12-18T01:01:25;68.20;;;24.27;;
3343;SDS011;1685;53.104;8.228;2022-12-18T01:03:52;53.73;;;22.17;;
3343;SDS011;1685;53.104;8.228;2022-12-18T01:06:19;54.00;;;23.60;;
3343;SDS011;1685;53.104;8.228;2022-12-18T01:08:46;66.23;;;23.67;;
3343;SDS011;1685;53.104;8.228;2022-12-18T01:11:13;63.00;;;23.77;;
3343;SDS011;1685;53.104;8.228;2022-12-18T01:13:43;54.00;;;21.80;;
3343;SDS011;1685;53.104;8.228;2022-12-18T01:16:10;66.73;;;21.90;;
3343;SDS011;1685;53.104;8.228;2022-12-18T01:18:38;54.23;;;21.53;;
3343;SDS011;1685;53.104;8.228;2022-12-18T01:21:05;48.90;;;21.53;;
3343;SDS011;1685;53.104;8.228;2022-12-18T01:23:33;53.50;;;21.10;;
3343;SDS011;1685;53.104;8.228;2022-12-18T01:26:03;54.13;;;22.13;;
3343;SDS011;1685;53.104;8.228;2022-12-18T01:28:31;52.20;;;22.10;;
3343;SDS011;1685;53.104;8.228;2022-12-18T01:31:09;47.93;;;20.20;;
3343;SDS011;1685;53.104;8.228;2022-12-18T01:33:37;57.47;;;20.97;;
3343;SDS011;1685;53.104;8.228;2022-12-18T01:36:04;42.50;;;18.80;;
3343;SDS011;1685;53.104;8.228;2022-12-18T01:38:31;40.80;;;20.07;;
3343;SDS011;1685;53.104;8.228;2022-12-18T01:40:58;40.30;;;17.93;;
3343;SDS011;1685;53.104;8.228;2022-12-18T01:43:40;50.60;;;22.30;;
3343;SDS011;1685;53.104;8.228;2022-12-18T01:46:08;49.93;;;19.77;;
3343;SDS011;1685;53.104;8.228;2022-12-18T01:48:36;51.30;;;20.93;;
3343;SDS011;1685;53.104;8.228;2022-12-18T01:51:03;48.43;;;18.30;;
3343;SDS011;1685;53.104;8.228;2022-12-18T01:53:31;49.77;;;20.17;;
3343;SDS011;1685;53.104;8.228;2022-12-18T01:55:58;52.80;;;19.63;;
3343;SDS011;1685;53.104;8.228;2022-12-18T01:58:27;45.57;;;17.93;;
3343;SDS011;1685;53.104;8.228;2022-12-18T02:01:01;43.03;;;18.63;;
3343;SDS011;1685;53.104;8.228;2022-12-18T02:03:29;50.83;;;18.20;;
3343;SDS011;1685;53.104;8.228;2022-12-18T02:05:57;49.13;;;18.70;;
3343;SDS011;1685;53.104;8.228;2022-12-18T02:08:28;42.37;;;18.73;;
3343;SDS011;1685;53.104;8.228;2022-12-18T02:11:01;40.57;;;17.67;;
3343;SDS011;1685;53.104;8.228;2022-12-18T02:13:36;36.87;;;17.40;;
3343;SDS011;1685;53.104;8.228;2022-12-18T02:16:11;42.23;;;19.40;;
3343;SDS011;1685;53.104;8.228;2022-12-18T02:18:47;47.70;;;18.30;;
3343;SDS011;1685;53.104;8.228;2022-12-18T02:21:20;44.67;;;18.23;;
3343;SDS011;1685;53.104;8.228;2022-12-18T02:23:56;36.37;;;18.13;;
3343;SDS011;1685;53.104;8.228;2022-12-18T02:26:30;39.17;;;17.23;;
3343;SDS011;1685;53.104;8.228;2022-12-18T02:29:02;35.30;;;18.13;;
3343;SDS011;1685;53.104;8.228;2022-12-18T02:31:35;45.43;;;18.13;;
3343;SDS011;1685;53.104;8.228;2022-12-18T02:34:05;48.83;;;19.10;;
3343;SDS011;1685;53.104;8.228;2022-12-18T02:36:34;46.23;;;16.63;;
3343;SDS011;1685;53.104;8.228;2022-12-18T02:39:04;35.43;;;18.17;;
3343;SDS011;1685;53.104;8.228;2022-12-18T02:41:35;35.00;;;16.70;;
3343;SDS011;1685;53.104;8.228;2022-12-18T02:44:08;37.07;;;17.80;;
3343;SDS011;1685;53.104;8.228;2022-12-18T02:46:37;36.57;;;17.97;;
3343;SDS011;1685;53.104;8.228;2022-12-18T02:49:10;33.97;;;17.53;;
3343;SDS011;1685;53.104;8.228;2022-12-18T02:51:47;39.70;;;16.40;;
3343;SDS011;1685;53.104;8.228;2022-12-18T02:54:21;31.43;;;16.90;;
3343;SDS011;1685;53.104;8.228;2022-12-18T02:57:00;32.33;;;17.07;;
3343;SDS011;1685;53.104;8.228;2022-12-18T02:59:36;29.27;;;15.17;;
3343;SDS011;1685;53.104;8.228;2022-12-18T03:02:11;36.87;;;15.53;;
3343;SDS011;1685;53.104;8.228;2022-12-18T03:04:46;33.00;;;17.03;;
3343;SDS011;1685;53.104;8.228;2022-12-18T03:07:20;29.07;;;15.90;;
3343;SDS011;1685;53.104;8.228;2022-12-18T03:09:51;33.43;;;16.07;;
3343;SDS011;1685;53.104;8.228;2022-12-18T03:12:23;50.17;;;18.77;;
3343;SDS011;1685;53.104;8.228;2022-12-18T03:14:56;32.97;;;15.40;;
3343;SDS011;1685;53.104;8.228;2022-12-18T03:17:27;36.77;;;16.23;;
3343;SDS011;1685;53.104;8.228;2022-12-18T03:19:56;34.50;;;16.60;;
3343;SDS011;1685;53.104;8.228;2022-12-18T03:22:28;33.77;;;15.10;;
3343;SDS011;1685;53.104;8.228;2022-12-18T03:24:58;32.70;;;15.83;;
3343;SDS011;1685;53.104;8.228;2022-12-18T03:27:30;34.03;;;16.30;;
3343;SDS011;1685;53.104;8.228;2022-12-18T03:30:00;31.53;;;16.27;;
3343;SDS011;1685;53.104;8.228;2022-12-18T03:32:33;30.67;;;15.57;;
3343;SDS011;1685;53.104;8.228;2022-12-18T03:35:06;34.57;;;14.43;;
3343;SDS011;1685;53.104;8.228;2022-12-18T03:37:34;40.10;;;16.37;;
3343;SDS011;1685;53.104;8.228;2022-12-18T03:40:01;31.10;;;16.60;;
3343;SDS011;1685;53.104;8.228;2022-12-18T03:42:29;26.23;;;15.67;;
3343;SDS011;1685;53.104;8.228;2022-12-18T03:45:06;25.77;;;14.63;;
3343;SDS011;1685;53.104;8.228;2022-12-18T03:47:38;33.23;;;14.40;;
3343;SDS011;1685;53.104;8.228;2022-12-18T03:50:11;33.43;;;15.77;;
3343;SDS011;1685;53.104;8.228;2022-12-18T03:52:42;27.63;;;14.73;;
3343;SDS011;1685;53.104;8.228;2022-12-18T03:55:15;28.77;;;14.87;;
3343;SDS011;1685;53.104;8.228;2022-12-18T03:57:45;33.13;;;15.40;;
3343;SDS011;1685;53.104;8.228;2022-12-18T04:00:14;41.53;;;16.67;;
3343;SDS011;1685;53.104;8.228;2022-12-18T04:02:43;27.43;;;14.73;;
3343;SDS011;1685;53.104;8.228;2022-12-18T04:05:13;29.87;;;15.13;;
3343;SDS011;1685;53.104;8.228;2022-12-18T04:07:41;26.77;;;13.67;;
3343;SDS011;1685;53.104;8.228;2022-12-18T04:10:08;23.63;;;13.73;;
3343;SDS011;1685;53.104;8.228;2022-12-18T04:12:38;24.33;;;14.07;;
3343;SDS011;1685;53.104;8.228;2022-12-18T04:15:07;28.00;;;14.10;;
3343;SDS011;1685;53.104;8.228;2022-12-18T04:17:34;34.73;;;15.97;;
3343;SDS011;1685;53.104;8.228;2022-12-18T04:20:01;25.03;;;13.80;;
3343;SDS011;1685;53.104;8.228;2022-12-18T04:22:28;28.67;;;14.13;;
3343;SDS011;1685;53.104;8.228;2022-12-18T04:24:55;28.73;;;15.03;;
3343;SDS011;1685;53.104;8.228;2022-12-18T04:27:22;22.70;;;13.30;;
3343;SDS011;1685;53.104;8.228;2022-12-18T04:29:49;26.60;;;14.33;;
3343;SDS011;1685;53.104;8.228;2022-12-18T04:32:18;24.00;;;14.80;;
3343;SDS011;1685;53.104;8.228;2022-12-18T04:34:44;27.40;;;13.03;;
3343;SDS011;1685;53.104;8.228;2022-12-18T04:37:11;26.17;;;13.23;;
3343;SDS011;1685;53.104;8.228;2022-12-18T04:39:38;26.97;;;14.90;;
3343;SDS011;1685;53.104;8.228;2022-12-18T04:42:05;24.03;;;14.87;;
3343;SDS011;1685;53.104;8.228;2022-12-18T04:44:32;25.53;;;13.50;;
3343;SDS011;1685;53.104;8.228;2022-12-18T04:46:59;21.50;;;13.93;;
3343;SDS011;1685;53.104;8.228;2022-12-18T04:49:28;27.87;;;14.67;;
3343;SDS011;1685;53.104;8.228;2022-12-18T04:51:54;26.87;;;14.37;;
3343;SDS011;1685;53.104;8.228;2022-12-18T04:54:21;24.10;;;12.80;;
3343;SDS011;1685;53.104;8.228;2022-12-18T04:56:48;26.87;;;14.57;;
3343;SDS011;1685;53.104;8.228;2022-12-18T04:59:15;24.73;;;13.93;;
3343;SDS011;1685;53.104;8.228;2022-12-18T05:01:42;30.63;;;14.13;;
3343;SDS011;1685;53.104;8.228;2022-12-18T05:04:09;25.20;;;12.53;;
3343;SDS011;1685;53.104;8.228;2022-12-18T05:06:37;28.70;;;13.30;;
3343;SDS011;1685;53.104;8.228;2022-12-18T05:09:03;25.90;;;14.10;;
3343;SDS011;1685;53.104;8.228;2022-12-18T05:11:30;26.20;;;15.13;;
3343;SDS011;1685;53.104;8.228;2022-12-18T05:13:57;23.33;;;12.67;;
3343;SDS011;1685;53.104;8.228;2022-12-18T05:16:24;21.13;;;12.63;;
3343;SDS011;1685;53.104;8.228;2022-12-18T05:18:51;22.40;;;13.40;;
3343;SDS011;1685;53.104;8.228;2022-12-18T05:21:18;22.90;;;12.03;;
3343;SDS011;1685;53.104;8.228;2022-12-18T05:23:46;24.57;;;14.13;;
3343;SDS011;1685;53.104;8.228;2022-12-18T05:26:14;19.53;;;11.13;;
3343;SDS011;1685;53.104;8.228;2022-12-18T05:28:42;22.20;;;12.40;;
3343;SDS011;1685;53.104;8.228;2022-12-18T05:31:09;24.40;;;12.50;;
3343;SDS011;1685;53.104;8.228;2022-12-18T05:33:36;23.53;;;12.77;;
3343;SDS011;1685;53.104;8.228;2022-12-18T05:36:03;20.90;;;11.67;;
3343;SDS011;1685;53.104;8.228;2022-12-18T05:38:32;22.53;;;12.80;;
3343;SDS011;1685;53.104;8.228;2022-12-18T05:41:02;21.53;;;11.57;;
3343;SDS011;1685;53.104;8.228;2022-12-18T05:43:29;16.40;;;11.13;;
3343;SDS011;1685;53.104;8.228;2022-12-18T05:45:56;18.80;;;12.60;;
3343;SDS011;1685;53.104;8.228;2022-12-18T05:48:23;21.60;;;13.30;;
3343;SDS011;1685;53.104;8.228;2022-12-18T05:50:50;23.63;;;14.07;;
3343;SDS011;1685;53.104;8.228;2022-12-18T05:53:18;19.57;;;11.87;;
3343;SDS011;1685;53.104;8.228;2022-12-18T05:55:45;19.30;;;11.10;;
3343;SDS011;1685;53.104;8.228;2022-12-18T05:58:14;22.60;;;13.00;;
3343;SDS011;1685;53.104;8.228;2022-12-18T06:00:42;24.70;;;13.40;;
3343;SDS011;1685;53.104;8.228;2022-12-18T06:03:11;22.90;;;11.30;;
3343;SDS011;1685;53.104;8.228;2022-12-18T06:05:39;28.93;;;11.90;;
3343;SDS011;1685;53.104;8.228;2022-12-18T06:08:06;21.97;;;11.50;;
3343;SDS011;1685;53.104;8.228;2022-12-18T06:10:33;22.30;;;11.77;;
3343;SDS011;1685;53.104;8.228;2022-12-18T06:13:00;17.17;;;11.10;;
3343;SDS011;1685;53.104;8.228;2022-12-18T06:15:29;21.10;;;11.93;;
3343;SDS011;1685;53.104;8.228;2022-12-18T06:17:56;18.40;;;11.10;;
3343;SDS011;1685;53.104;8.228;2022-12-18T06:20:23;15.33;;;11.17;;
3343;SDS011;1685;53.104;8.228;2022-12-18T06:22:50;18.13;;;12.30;;
3343;SDS011;1685;53.104;8.228;2022-12-18T06:25:17;17.70;;;12.33;;
3343;SDS011;1685;53.104;8.228;2022-12-18T06:27:44;17.93;;;10.20;;
3343;SDS011;1685;53.104;8.228;2022-12-18T06:30:11;15.77;;;10.90;;
3343;SDS011;1685;53.104;8.228;2022-12-18T06:32:40;16.17;;;10.37;;
3343;SDS011;1685;53.104;8.228;2022-12-18T06:35:06;17.13;;;10.80;;
3343;SDS011;1685;53.104;8.228;2022-12-18T06:37:33;15.13;;;9.97;;
3343;SDS011;1685;53.104;8.228;2022-12-18T06:40:00;14.60;;;10.13;;
3343;SDS011;1685;53.104;8.228;2022-12-18T06:42:28;14.00;;;10.57;;
3343;SDS011;1685;53.104;8.228;2022-12-18T06:44:55;17.17;;;9.33;;
3343;SDS011;1685;53.104;8.228;2022-12-18T06:47:22;14.13;;;10.20;;
3343;SDS011;1685;53.104;8.228;2022-12-18T06:49:50;17.10;;;11.10;;
3343;SDS011;1685;53.104;8.228;2022-12-18T06:52:17;18.90;;;11.37;;
3343;SDS011;1685;53.104;8.228;2022-12-18T06:54:44;14.37;;;10.03;;
3343;SDS011;1685;53.104;8.228;2022-12-18T06:57:11;20.10;;;10.47;;
3343;SDS011;1685;53.104;8.228;2022-12-18T06:59:38;18.60;;;10.93;;
3343;SDS011;1685;53.104;8.228;2022-12-18T07:02:05;14.27;;;9.20;;
3343;SDS011;1685;53.104;8.228;2022-12-18T07:04:32;14.33;;;8.90;;
3343;SDS011;1685;53.104;8.228;2022-12-18T07:07:01;11.23;;;9.37;;
3343;SDS011;1685;53.104;8.228;2022-12-18T07:09:27;14.47;;;9.13;;
3343;SDS011;1685;53.104;8.228;2022-12-18T07:11:54;14.33;;;10.30;;
3343;SDS011;1685;53.104;8.228;2022-12-18T07:14:22;17.33;;;10.00;;
3343;SDS011;1685;53.104;8.228;2022-12-18T07:16:49;13.60;;;9.10;;
3343;SDS011;1685;53.104;8.228;2022-12-18T07:19:16;14.90;;;10.37;;
3343;SDS011;1685;53.104;8.228;2022-12-18T07:21:43;18.50;;;9.80;;
3343;SDS011;1685;53.104;8.228;2022-12-18T07:24:11;14.73;;;10.00;;
3343;SDS011;1685;53.104;8.228;2022-12-18T07:26:38;11.60;;;8.43;;
3343;SDS011;1685;53.104;8.228;2022-12-18T07:29:05;14.40;;;9.17;;
3343;SDS011;1685;53.104;8.228;2022-12-18T07:31:32;10.40;;;7.97;;
3343;SDS011;1685;53.104;8.228;2022-12-18T07:33:59;10.33;;;8.70;;
3343;SDS011;1685;53.104;8.228;2022-12-18T07:36:26;11.67;;;8.63;;
3343;SDS011;1685;53.104;8.228;2022-12-18T07:38:53;15.90;;;8.67;;
3343;SDS011;1685;53.104;8.228;2022-12-18T07:41:22;13.03;;;9.00;;
3343;SDS011;1685;53.104;8.228;2022-12-18T07:43:49;12.77;;;8.90;;
3343;SDS011;1685;53.104;8.228;2022-12-18T07:46:16;15.47;;;9.17;;
3343;SDS011;1685;53.104;8.228;2022-12-18T07:48:43;11.43;;;9.00;;
3343;SDS011;1685;53.104;8.228;2022-12-18T07:51:10;11.33;;;8.70;;
3343;SDS011;1685;53.104;8.228;2022-12-18T07:53:37;11.90;;;8.20;;
3343;SDS011;1685;53.104;8.228;2022-12-18T07:56:06;13.03;;;9.30;;
3343;SDS011;1685;53.104;8.228;2022-12-18T07:58:36;14.90;;;8.67;;
3343;SDS011;1685;53.104;8.228;2022-12-18T08:01:03;9.57;;;8.30;;
3343;SDS011;1685;53.104;8.228;2022-12-18T08:03:30;11.97;;;9.13;;
3343;SDS011;1685;53.104;8.228;2022-12-18T08:05:58;10.73;;;8.00;;
3343;SDS011;1685;53.104;8.228;2022-12-18T08:08:26;12.83;;;7.50;;
3343;SDS011;1685;53.104;8.228;2022-12-18T08:10:53;21.23;;;9.03;;
3343;SDS011;1685;53.104;8.228;2022-12-18T08:13:20;12.70;;;8.57;;
3343;SDS011;1685;53.104;8.228;2022-12-18T08:15:56;12.07;;;8.97;;
3343;SDS011;1685;53.104;8.228;2022-12-18T08:18:23;13.57;;;8.80;;
3343;SDS011;1685;53.104;8.228;2022-12-18T08:20:50;14.53;;;7.40;;
3343;SDS011;1685;53.104;8.228;2022-12-18T08:23:17;13.83;;;9.07;;
3343;SDS011;1685;53.104;8.228;2022-12-18T08:25:44;10.17;;;8.37;;
3343;SDS011;1685;53.104;8.228;2022-12-18T08:28:11;13.40;;;8.67;;
3343;SDS011;1685;53.104;8.228;2022-12-18T08:30:38;11.90;;;9.00;;
3343;SDS011;1685;53.104;8.228;2022-12-18T08:33:07;13.57;;;8.60;;
3343;SDS011;1685;53.104;8.228;2022-12-18T08:35:34;10.87;;;7.87;;
3343;SDS011;1685;53.104;8.228;2022-12-18T08:38:02;14.10;;;9.17;;
3343;SDS011;1685;53.104;8.228;2022-12-18T08:40:29;13.80;;;9.17;;
3343;SDS011;1685;53.104;8.228;2022-12-18T08:42:56;15.27;;;8.80;;
3343;SDS011;1685;53.104;8.228;2022-12-18T08:45:41;13.20;;;9.60;;
3343;SDS011;1685;53.104;8.228;2022-12-18T08:48:09;14.35;;;8.70;;
3343;SDS011;1685;53.104;8.228;2022-12-18T08:50:36;16.77;;;9.67;;
3343;SDS011;1685;53.104;8.228;2022-12-18T08:53:03;10.37;;;8.20;;
3343;SDS011;1685;53.104;8.228;2022-12-18T08:55:30;13.00;;;9.03;;
3343;SDS011;1685;53.104;8.228;2022-12-18T08:57:57;14.03;;;9.10;;
3343;SDS011;1685;53.104;8.228;2022-12-18T09:00:24;11.40;;;8.80;;
3343;SDS011;1685;53.104;8.228;2022-12-18T09:02:51;11.20;;;7.93;;
3343;SDS011;1685;53.104;8.228;2022-12-18T09:05:19;13.87;;;8.97;;
3343;SDS011;1685;53.104;8.228;2022-12-18T09:07:46;12.30;;;8.90;;
3343;SDS011;1685;53.104;8.228;2022-12-18T09:10:13;11.27;;;8.03;;
3343;SDS011;1685;53.104;8.228;2022-12-18T09:12:40;13.70;;;9.30;;
3343;SDS011;1685;53.104;8.228;2022-12-18T09:15:07;16.80;;;9.30;;
3343;SDS011;1685;53.104;8.228;2022-12-18T09:17:35;10.60;;;8.80;;
3343;SDS011;1685;53.104;8.228;2022-12-18T09:20:02;13.70;;;8.80;;
3343;SDS011;1685;53.104;8.228;2022-12-18T09:22:30;11.97;;;9.40;;
3343;SDS011;1685;53.104;8.228;2022-12-18T09:24:57;15.13;;;9.60;;
3343;SDS011;1685;53.104;8.228;2022-12-18T09:27:24;14.73;;;8.00;;
3343;SDS011;1685;53.104;8.228;2022-12-18T09:29:51;12.63;;;8.60;;
3343;SDS011;1685;53.104;8.228;2022-12-18T09:32:18;13.47;;;9.47;;
3343;SDS011;1685;53.104;8.228;2022-12-18T09:34:45;16.90;;;9.97;;
3343;SDS011;1685;53.104;8.228;2022-12-18T09:37:12;14.10;;;10.60;;
3343;SDS011;1685;53.104;8.228;2022-12-18T09:39:40;16.33;;;10.13;;
3343;SDS011;1685;53.104;8.228;2022-12-18T09:42:09;13.53;;;10.33;;
3343;SDS011;1685;53.104;8.228;2022-12-18T09:44:44;14.23;;;10.47;;
3343;SDS011;1685;53.104;8.228;2022-12-18T09:47:17;18.60;;;11.33;;
3343;SDS011;1685;53.104;8.228;2022-12-18T09:49:47;17.00;;;10.17;;
3343;SDS011;1685;53.104;8.228;2022-12-18T09:52:17;18.10;;;11.53;;
3343;SDS011;1685;53.104;8.228;2022-12-18T09:54:51;16.40;;;10.40;;
3343;SDS011;1685;53.104;8.228;2022-12-18T09:57:23;13.50;;;10.53;;
3343;SDS011;1685;53.104;8.228;2022-12-18T09:59:51;19.07;;;10.57;;
3343;SDS011;1685;53.104;8.228;2022-12-18T10:02:22;13.40;;;10.50;;
3343;SDS011;1685;53.104;8.228;2022-12-18T10:04:55;18.47;;;10.80;;
3343;SDS011;1685;53.104;8.228;2022-12-18T10:07:33;14.50;;;10.10;;
3343;SDS011;1685;53.104;8.228;2022-12-18T10:10:10;16.70;;;10.67;;
3343;SDS011;1685;53.104;8.228;2022-12-18T10:12:46;20.27;;;10.67;;
3343;SDS011;1685;53.104;8.228;2022-12-18T10:15:22;16.80;;;10.57;;
3343;SDS011;1685;53.104;8.228;2022-12-18T10:17:57;15.07;;;10.97;;
3343;SDS011;1685;53.104;8.228;2022-12-18T10:20:32;13.90;;;10.20;;
3343;SDS011;1685;53.104;8.228;2022-12-18T10:23:04;14.60;;;9.10;;
3343;SDS011;1685;53.104;8.228;2022-12-18T10:25:45;20.40;;;10.20;;
3343;SDS011;1685;53.104;8.228;2022-12-18T10:28:19;22.63;;;10.80;;
3343;SDS011;1685;53.104;8.228;2022-12-18T10:30:47;16.80;;;11.33;;
3343;SDS011;1685;53.104;8.228;2022-12-18T10:33:14;15.17;;;10.40;;
3343;SDS011;1685;53.104;8.228;2022-12-18T10:35:43;18.47;;;9.80;;
3343;SDS011;1685;53.104;8.228;2022-12-18T10:38:22;14.33;;;10.90;;
3343;SDS011;1685;53.104;8.228;2022-12-18T10:40:52;17.33;;;9.97;;
3343;SDS011;1685;53.104;8.228;2022-12-18T10:43:22;12.40;;;10.20;;
3343;SDS011;1685;53.104;8.228;2022-12-18T10:46:04;14.10;;;9.93;;
3343;SDS011;1685;53.104;8.228;2022-12-18T10:48:40;11.73;;;8.70;;
3343;SDS011;1685;53.104;8.228;2022-12-18T10:51:19;16.50;;;10.47;;
3343;SDS011;1685;53.104;8.228;2022-12-18T10:53:51;13.50;;;9.13;;
3343;SDS011;1685;53.104;8.228;2022-12-18T10:56:21;15.13;;;9.30;;
3343;SDS011;1685;53.104;8.228;2022-12-18T10:58:55;15.67;;;8.83;;
3343;SDS011;1685;53.104;8.228;2022-12-18T11:01:23;15.77;;;10.70;;
3343;SDS011;1685;53.104;8.228;2022-12-18T11:03:58;17.67;;;11.20;;
3343;SDS011;1685;53.104;8.228;2022-12-18T11:06:26;17.53;;;10.77;;
3343;SDS011;1685;53.104;8.228;2022-12-18T11:08:57;15.90;;;10.13;;
3343;SDS011;1685;53.104;8.228;2022-12-18T11:11:27;15.40;;;9.33;;
3343;SDS011;1685;53.104;8.228;2022-12-18T11:13:58;13.27;;;9.90;;
3343;SDS011;1685;53.104;8.228;2022-12-18T11:16:28;13.00;;;9.23;;
3343;SDS011;1685;53.104;8.228;2022-12-18T11:19:10;15.90;;;9.93;;
3343;SDS011;1685;53.104;8.228;2022-12-18T11:21:47;14.07;;;10.07;;
3343;SDS011;1685;53.104;8.228;2022-12-18T11:24:18;14.90;;;10.07;;
3343;SDS011;1685;53.104;8.228;2022-12-18T11:26:48;14.93;;;10.83;;
3343;SDS011;1685;53.104;8.228;2022-12-18T11:29:16;22.00;;;10.43;;
3343;SDS011;1685;53.104;8.228;2022-12-18T11:31:48;12.30;;;8.33;;
3343;SDS011;1685;53.104;8.228;2022-12-18T11:34:16;13.20;;;8.90;;
3343;SDS011;1685;53.104;8.228;2022-12-18T11:36:49;10.47;;;8.27;;
3343;SDS011;1685;53.104;8.228;2022-12-18T11:39:17;9.77;;;8.40;;
3343;SDS011;1685;53.104;8.228;2022-12-18T11:41:47;11.40;;;8.37;;
3343;SDS011;1685;53.104;8.228;2022-12-18T11:44:42;13.70;;;8.50;;
3343;SDS011;1685;53.104;8.228;2022-12-18T11:47:15;11.63;;;9.03;;
3343;SDS011;1685;53.104;8.228;2022-12-18T11:49:50;12.63;;;8.37;;
3343;SDS011;1685;53.104;8.228;2022-12-18T11:52:18;12.53;;;8.33;;
3343;SDS011;1685;53.104;8.228;2022-12-18T11:54:50;14.20;;;8.17;;
3343;SDS011;1685;53.104;8.228;2022-12-18T11:57:27;13.13;;;9.20;;
3343;SDS011;1685;53.104;8.228;2022-12-18T12:00:01;18.43;;;9.40;;
3343;SDS011;1685;53.104;8.228;2022-12-18T12:02:37;13.23;;;8.17;;
3343;SDS011;1685;53.104;8.228;2022-12-18T12:05:20;10.73;;;8.93;;
3343;SDS011;1685;53.104;8.228;2022-12-18T12:07:54;10.70;;;7.97;;
3343;SDS011;1685;53.104;8.228;2022-12-18T12:10:30;12.77;;;8.40;;
3343;SDS011;1685;53.104;8.228;2022-12-18T12:13:14;12.73;;;8.83;;
3343;SDS011;1685;53.104;8.228;2022-12-18T12:15:50;22.17;;;8.23;;
3343;SDS011;1685;53.104;8.228;2022-12-18T12:18:29;12.43;;;8.90;;
3343;SDS011;1685;53.104;8.228;2022-12-18T12:21:08;11.25;;;7.32;;
3343;SDS011;1685;53.104;8.228;2022-12-18T12:23:43;13.03;;;8.97;;
3343;SDS011;1685;53.104;8.228;2022-12-18T12:26:18;19.50;;;10.00;;
3343;SDS011;1685;53.104;8.228;2022-12-18T12:28:54;16.63;;;8.00;;
3343;SDS011;1685;53.104;8.228;2022-12-18T12:31:55;12.20;;;9.27;;
3343;SDS011;1685;53.104;8.228;2022-12-18T12:34:32;11.07;;;7.93;;
3343;SDS011;1685;53.104;8.228;2022-12-18T12:37:07;10.60;;;8.57;;
3343;SDS011;1685;53.104;8.228;2022-12-18T12:39:42;13.68;;;7.85;;
3343;SDS011;1685;53.104;8.228;2022-12-18T12:42:13;15.53;;;10.80;;
3343;SDS011;1685;53.104;8.228;2022-12-18T12:45:04;14.03;;;8.73;;
3343;SDS011;1685;53.104;8.228;2022-12-18T12:47:40;13.00;;;9.10;;
3343;SDS011;1685;53.104;8.228;2022-12-18T12:50:12;18.20;;;9.47;;
3343;SDS011;1685;53.104;8.228;2022-12-18T12:52:42;16.00;;;9.83;;
3343;SDS011;1685;53.104;8.228;2022-12-18T12:55:13;10.23;;;7.97;;
3343;SDS011;1685;53.104;8.228;2022-12-18T12:57:46;7.83;;;6.30;;
3343;SDS011;1685;53.104;8.228;2022-12-18T13:00:18;8.67;;;7.30;;
3343;SDS011;1685;53.104;8.228;2022-12-18T13:02:47;12.60;;;8.50;;
3343;SDS011;1685;53.104;8.228;2022-12-18T13:05:20;12.97;;;8.60;;
3343;SDS011;1685;53.104;8.228;2022-12-18T13:07:52;10.73;;;7.53;;
3343;SDS011;1685;53.104;8.228;2022-12-18T13:10:25;12.07;;;7.80;;
3343;SDS011;1685;53.104;8.228;2022-12-18T13:12:58;11.83;;;7.80;;
3343;SDS011;1685;53.104;8.228;2022-12-18T13:15:27;12.47;;;7.83;;
3343;SDS011;1685;53.104;8.228;2022-12-18T13:18:04;9.07;;;6.63;;
3343;SDS011;1685;53.104;8.228;2022-12-18T13:20:38;15.30;;;8.27;;
3343;SDS011;1685;53.104;8.228;2022-12-18T13:25:53;13.47;;;8.70;;
3343;SDS011;1685;53.104;8.228;2022-12-18T13:28:21;12.33;;;10.13;;
3343;SDS011;1685;53.104;8.228;2022-12-18T13:30:52;10.67;;;7.97;;
3343;SDS011;1685;53.104;8.228;2022-12-18T13:36:15;8.73;;;7.30;;
3343;SDS011;1685;53.104;8.228;2022-12-18T13:48:20;10.80;;;7.40;;
3343;SDS011;1685;53.104;8.228;2022-12-18T13:50:49;8.33;;;7.40;;
3343;SDS011;1685;53.104;8.228;2022-12-18T13:53:20;7.17;;;6.57;;
3343;SDS011;1685;53.104;8.228;2022-12-18T13:55:50;10.27;;;6.57;;
3343;SDS011;1685;53.104;8.228;2022-12-18T13:58:17;10.07;;;7.70;;
3343;SDS011;1685;53.104;8.228;2022-12-18T14:00:44;10.00;;;7.53;;
3343;SDS011;1685;53.104;8.228;2022-12-18T14:03:18;9.03;;;7.53;;
3343;SDS011;1685;53.104;8.228;2022-12-18T14:05:52;10.27;;;7.20;;
3343;SDS011;1685;53.104;8.228;2022-12-18T14:08:21;8.37;;;7.20;;
3343;SDS011;1685;53.104;8.228;2022-12-18T14:10:51;12.10;;;6.70;;
3343;SDS011;1685;53.104;8.228;2022-12-18T14:13:23;20.83;;;8.40;;
3343;SDS011;1685;53.104;8.228;2022-12-18T14:15:52;8.43;;;7.37;;
3343;SDS011;1685;53.104;8.228;2022-12-18T14:18:22;9.83;;;7.50;;
3343;SDS011;1685;53.104;8.228;2022-12-18T14:20:51;14.90;;;7.50;;
3343;SDS011;1685;53.104;8.228;2022-12-18T14:23:29;11.60;;;8.07;;
3343;SDS011;1685;53.104;8.228;2022-12-18T14:25:57;12.10;;;7.30;;
3343;SDS011;1685;53.104;8.228;2022-12-18T14:28:24;14.43;;;7.40;;
3343;SDS011;1685;53.104;8.228;2022-12-18T14:30:52;9.93;;;7.20;;
3343;SDS011;1685;53.104;8.228;2022-12-18T14:33:20;7.67;;;6.97;;
3343;SDS011;1685;53.104;8.228;2022-12-18T14:35:53;12.63;;;7.90;;
3343;SDS011;1685;53.104;8.228;2022-12-18T14:38:23;7.87;;;7.07;;
3343;SDS011;1685;53.104;8.228;2022-12-18T14:40:53;12.87;;;7.30;;
3343;SDS011;1685;53.104;8.228;2022-12-18T14:43:24;10.83;;;7.23;;
3343;SDS011;1685;53.104;8.228;2022-12-18T14:45:52;10.40;;;7.97;;
3343;SDS011;1685;53.104;8.228;2022-12-18T14:48:20;8.73;;;6.80;;
3343;SDS011;1685;53.104;8.228;2022-12-18T14:51:00;10.07;;;6.93;;
3343;SDS011;1685;53.104;8.228;2022-12-18T14:53:32;8.23;;;6.70;;
3343;SDS011;1685;53.104;8.228;2022-12-18T14:56:02;8.80;;;6.73;;
3343;SDS011;1685;53.104;8.228;2022-12-18T14:58:37;14.93;;;7.67;;
3343;SDS011;1685;53.104;8.228;2022-12-18T15:01:04;9.80;;;7.43;;
3343;SDS011;1685;53.104;8.228;2022-12-18T15:03:33;34.43;;;7.70;;
3343;SDS011;1685;53.104;8.228;2022-12-18T15:06:14;8.20;;;7.20;;
3343;SDS011;1685;53.104;8.228;2022-12-18T15:08:42;12.13;;;7.33;;
3343;SDS011;1685;53.104;8.228;2022-12-18T15:11:24;9.53;;;7.33;;
3343;SDS011;1685;53.104;8.228;2022-12-18T15:13:52;9.30;;;7.80;;
3343;SDS011;1685;53.104;8.228;2022-12-18T15:16:19;10.43;;;7.30;;
3343;SDS011;1685;53.104;8.228;2022-12-18T15:18:48;10.73;;;7.30;;
3343;SDS011;1685;53.104;8.228;2022-12-18T15:21:16;7.30;;;6.60;;
3343;SDS011;1685;53.104;8.228;2022-12-18T15:23:48;9.00;;;7.70;;
3343;SDS011;1685;53.104;8.228;2022-12-18T15:26:17;8.87;;;7.97;;
3343;SDS011;1685;53.104;8.228;2022-12-18T15:28:45;11.90;;;7.60;;